Time;durP1;ratioP1;P1;durP2;ratioP2;P2;SDS_P1;SDS_P2;PMS_P1;PMS_P2;Temp;Humidity;BMP_temperature;BMP_pressure;BME280_temperature;BME280_humidity;BME280_pressure;Samples;Min_cycle;Max_cycle;Signal;HPM_P1;HPM_P2
2022/09/05 00:00:00;;;;;;;3.62;2.10;;;;;;;18.78;61.84;100277.28;4476977;32;33437;-80
2022/09/05 00:02:49;;;;;;;1.90;1.52;;;;;;;18.86;61.52;100277.84;4477302;32;34572;-82
2022/09/05 00:05:43;;;;;;;3.12;2.12;;;;;;;18.82;61.57;100282.34;4476969;32;34831;-82
2022/09/05 00:08:42;;;;;;;2.75;1.60;;;;;;;18.90;61.20;100284.72;4476708;32;34430;-81
2022/09/05 00:11:16;;;;;;;4.20;2.15;;;;;;;18.82;61.12;100287.59;4479774;32;34041;-79
2022/09/05 00:14:19;;;;;;;2.72;1.85;;;;;;;18.79;61.63;100286.88;4482481;32;33546;-79
2022/09/05 00:17:17;;;;;;;3.00;1.83;;;;;;;18.63;61.96;100287.44;4482751;32;33557;-83
2022/09/05 00:19:50;;;;;;;1.98;1.60;;;;;;;18.65;61.87;100290.84;4483996;31;33823;-79
2022/09/05 00:22:47;;;;;;;3.35;2.22;;;;;;;18.65;61.85;100282.97;4476981;31;33351;-80
2022/09/05 00:26:08;;;;;;;7.00;1.90;;;;;;;18.60;61.75;100284.03;4493191;31;33657;-81
2022/09/05 00:28:43;;;;;;;3.65;2.03;;;;;;;18.61;61.68;100280.50;4492275;31;34872;-79
2022/09/05 00:31:37;;;;;;;3.75;1.73;;;;;;;18.56;61.66;100283.31;4492277;31;33518;-82
2022/09/05 00:34:36;;;;;;;3.17;1.75;;;;;;;18.53;61.53;100278.16;4492279;31;33391;-79
2022/09/05 00:37:26;;;;;;;1.73;1.40;;;;;;;18.26;62.48;100277.37;4492094;31;33881;-79
2022/09/05 00:40:12;;;;;;;4.97;2.47;;;;;;;18.53;61.58;100276.41;4497695;31;34889;-81
2022/09/05 00:42:48;;;;;;;3.53;2.12;;;;;;;18.50;61.64;100267.75;4498219;31;34556;-79
2022/09/05 00:45:26;;;;;;;3.33;1.90;;;;;;;18.54;61.59;100272.00;4492229;31;32587;-80
2022/09/05 00:48:01;;;;;;;3.22;1.98;;;;;;;18.46;61.98;100269.66;4485880;31;33781;-80
2022/09/05 00:50:37;;;;;;;3.47;2.05;;;;;;;18.39;62.32;100272.53;4475443;32;34363;-80
2022/09/05 00:53:10;;;;;;;2.20;1.87;;;;;;;18.56;61.88;100275.44;4475458;32;33540;-81
2022/09/05 00:55:52;;;;;;;2.53;1.83;;;;;;;18.53;61.98;100272.88;4480988;32;32957;-80
2022/09/05 00:58:44;;;;;;;2.62;1.77;;;;;;;18.52;61.99;100277.28;4475918;32;34410;-78
2022/09/05 01:01:26;;;;;;;3.15;1.87;;;;;;;18.40;62.44;100274.25;4476466;32;33562;-79
2022/09/05 01:04:04;;;;;;;3.03;1.90;;;;;;;18.42;62.22;100277.69;4476447;32;34469;-79
2022/09/05 01:06:48;;;;;;;4.55;1.77;;;;;;;18.44;61.92;100281.97;4477733;32;33733;-79
2022/09/05 01:09:26;;;;;;;2.70;1.70;;;;;;;18.43;61.94;100272.38;4478198;32;34577;-79
2022/09/05 01:12:10;;;;;;;5.00;2.03;;;;;;;18.41;61.85;100268.97;4483266;32;34753;-82
2022/09/05 01:14:51;;;;;;;3.50;1.75;;;;;;;18.33;62.22;100273.63;4484005;32;33708;-82
2022/09/05 01:17:30;;;;;;;4.10;1.85;;;;;;;18.36;61.91;100270.87;4478214;32;33566;-82
2022/09/05 01:20:13;;;;;;;3.25;1.80;;;;;;;18.34;61.97;100268.31;4478137;32;33498;-78
2022/09/05 01:23:28;;;;;;;2.83;1.75;;;;;;;18.45;61.70;100270.53;4478172;32;33742;-79
2022/09/05 01:26:09;;;;;;;5.28;2.80;;;;;;;18.51;61.11;100266.84;4428983;32;33801;-78
2022/09/05 01:28:42;;;;;;;4.22;2.03;;;;;;;18.55;61.04;100264.03;4428761;32;33354;-79
2022/09/05 01:31:37;;;;;;;3.78;2.17;;;;;;;18.52;60.91;100264.16;4434003;32;33772;-78
2022/09/05 01:34:12;;;;;;;3.00;1.80;;;;;;;18.28;61.62;100270.31;4449801;32;34327;-78
2022/09/05 01:36:53;;;;;;;3.37;1.70;;;;;;;18.43;60.93;100264.47;4444365;32;33512;-82
2022/09/05 01:39:30;;;;;;;2.70;1.65;;;;;;;18.42;60.87;100267.19;4444517;32;32933;-79
2022/09/05 01:42:30;;;;;;;4.00;1.90;;;;;;;18.33;61.09;100274.47;4444096;32;34264;-82
2022/09/05 01:45:05;;;;;;;7.35;1.73;;;;;;;18.48;60.53;100269.56;4444360;32;33909;-79
2022/09/05 01:47:44;;;;;;;3.05;2.08;;;;;;;18.38;61.11;100268.19;4445171;32;33209;-80
2022/09/05 01:50:24;;;;;;;3.03;1.85;;;;;;;18.43;60.66;100277.63;4449784;32;33822;-80
2022/09/05 01:53:08;;;;;;;4.82;2.10;;;;;;;18.29;61.21;100278.13;4444367;32;33527;-78
2022/09/05 01:55:52;;;;;;;3.20;2.08;;;;;;;18.32;61.30;100272.78;4434190;32;34287;-79
2022/09/05 01:58:44;;;;;;;3.00;1.70;;;;;;;18.27;61.42;100281.72;4428655;32;33538;-81
2022/09/05 02:01:18;;;;;;;4.72;1.70;;;;;;;18.21;61.48;100274.91;4472216;32;33231;-79
2022/09/05 02:04:21;;;;;;;2.28;1.73;;;;;;;18.24;61.04;100280.06;4477949;32;33543;-79
2022/09/05 02:07:03;;;;;;;3.92;2.05;;;;;;;18.08;61.22;100278.91;4478891;32;34433;-81
2022/09/05 02:09:58;;;;;;;;;;;;;;;18.17;61.21;100278.56;4483396;32;34869;-78
2022/09/05 02:12:40;;;;;;;2.42;1.52;;;;;;;18.09;61.39;100278.81;4483262;32;33817;-78
2022/09/05 02:15:14;;;;;;;2.75;1.83;;;;;;;18.01;61.65;100280.00;4477804;32;34181;-79
2022/09/05 02:17:50;;;;;;;4.72;2.17;;;;;;;18.09;61.24;100284.06;4477590;32;33702;-77
2022/09/05 02:20:23;;;;;;;2.92;1.60;;;;;;;18.16;60.90;100276.84;4477844;32;33607;-78
2022/09/05 02:22:59;;;;;;;1.77;1.52;;;;;;;18.09;61.33;100280.59;4480180;32;32889;-79
2022/09/05 02:25:33;;;;;;;2.83;1.70;;;;;;;18.11;61.08;100270.91;4483029;32;33750;-79
2022/09/05 02:28:29;;;;;;;3.75;2.15;;;;;;;18.02;61.42;100279.94;4477470;32;33709;-81
2022/09/05 02:31:05;;;;;;;2.87;1.70;;;;;;;18.14;61.21;100278.66;4477337;32;34161;-81
2022/09/05 02:33:55;;;;;;;3.40;2.00;;;;;;;18.12;61.40;100275.22;4477490;32;34089;-78
2022/09/05 02:36:35;;;;;;;5.28;2.28;;;;;;;18.08;61.45;100281.53;4477352;32;33827;-80
2022/09/05 02:39:12;;;;;;;3.10;1.83;;;;;;;17.97;61.81;100275.78;4477664;32;33582;-79
2022/09/05 02:42:07;;;;;;;3.33;2.10;;;;;;;18.06;61.25;100275.47;4482983;32;33702;-78
2022/09/05 02:45:06;;;;;;;2.15;1.50;;;;;;;17.90;61.58;100281.25;4482959;32;33049;-80
2022/09/05 02:48:00;;;;;;;4.18;2.10;;;;;;;17.95;61.62;100280.22;4482794;32;33831;-79
2022/09/05 02:50:54;;;;;;;3.58;1.75;;;;;;;17.92;61.46;100282.03;4477471;32;33709;-80
2022/09/05 02:53:46;;;;;;;3.40;1.70;;;;;;;17.78;61.58;100286.00;4480337;32;34233;-81
2022/09/05 02:56:44;;;;;;;2.67;1.42;;;;;;;17.62;62.31;100289.13;4477148;32;32828;-78
2022/09/05 02:59:46;;;;;;;3.03;1.87;;;;;;;17.89;61.35;100287.38;4477043;32;34108;-78
2022/09/05 03:02:23;;;;;;;2.80;1.70;;;;;;;17.88;61.30;100292.72;4477018;32;34098;-79
2022/09/05 03:05:01;;;;;;;3.78;2.30;;;;;;;17.86;61.33;100282.25;4477061;32;34341;-79
2022/09/05 03:07:48;;;;;;;2.95;1.90;;;;;;;17.89;61.33;100283.91;4482555;32;33042;-78
2022/09/05 03:10:34;;;;;;;2.25;1.73;;;;;;;17.82;61.49;100295.53;4479339;32;34857;-80
2022/09/05 03:13:58;;;;;;;2.35;1.55;;;;;;;17.86;61.38;100286.66;4477226;32;34010;-81
2022/09/05 03:17:01;;;;;;;3.35;2.22;;;;;;;17.77;61.90;100293.00;4475729;31;33526;-80
2022/09/05 03:20:09;;;;;;;3.12;1.92;;;;;;;17.76;62.09;100288.69;4477169;32;34203;-78
2022/09/05 03:23:17;;;;;;;2.80;1.73;;;;;;;17.77;62.07;100289.53;4428988;32;33329;-81
2022/09/05 03:26:16;;;;;;;4.40;2.45;;;;;;;17.70;62.38;100302.00;4419482;32;33583;-79
2022/09/05 03:29:16;;;;;;;3.20;1.70;;;;;;;17.62;62.70;100298.78;4420673;32;33115;-81
2022/09/05 03:32:04;;;;;;;3.50;2.17;;;;;;;17.35;63.55;100293.50;4434274;32;32957;-79
2022/09/05 03:35:08;;;;;;;2.15;1.77;;;;;;;17.54;63.02;100295.53;4443405;32;33918;-79
2022/09/05 03:37:49;;;;;;;3.58;2.10;;;;;;;17.38;63.39;100293.41;4381995;32;35394;-78
2022/09/05 03:40:39;;;;;;;3.35;1.98;;;;;;;17.46;63.35;100299.25;4382377;32;33786;-81
2022/09/05 03:43:40;;;;;;;4.32;2.65;;;;;;;17.47;63.20;100303.59;4387931;32;34018;-79
2022/09/05 03:46:23;;;;;;;3.78;1.70;;;;;;;17.43;63.17;100309.00;4386187;32;34412;-79
2022/09/05 03:49:14;;;;;;;3.33;1.75;;;;;;;17.39;63.34;100305.59;4381943;32;34303;-79
2022/09/05 03:52:11;;;;;;;4.03;2.05;;;;;;;17.37;63.32;100310.06;4367292;32;33669;-77
2022/09/05 03:55:16;;;;;;;3.47;1.83;;;;;;;17.47;62.99;100305.37;4366727;32;33191;-82
2022/09/05 03:58:39;;;;;;;3.80;2.03;;;;;;;17.53;62.63;100322.69;4367133;32;33657;-80
2022/09/05 04:01:34;;;;;;;3.17;2.00;;;;;;;17.54;62.10;100316.50;4427842;32;33746;-79
2022/09/05 04:04:27;;;;;;;3.67;1.87;;;;;;;17.47;62.27;100321.13;4427615;32;34828;-79
2022/09/05 04:07:19;;;;;;;3.58;2.22;;;;;;;17.33;62.78;100321.53;4427714;32;34282;-79
2022/09/05 04:10:13;;;;;;;2.92;1.90;;;;;;;17.45;62.46;100326.41;4428543;32;33909;-79
2022/09/05 04:12:49;;;;;;;4.10;2.45;;;;;;;17.52;62.12;100326.19;4438074;32;33834;-79
2022/09/05 04:15:30;;;;;;;4.57;2.37;;;;;;;17.22;63.00;100324.47;4482565;32;34628;-81
2022/09/05 04:18:00;;;;;;;4.23;2.00;;;;;;;17.35;62.96;100331.97;4482548;32;33925;-81
2022/09/05 04:20:38;;;;;;;3.85;2.37;;;;;;;17.35;63.04;100332.84;4476819;32;33535;-79
2022/09/05 04:23:15;;;;;;;3.15;2.15;;;;;;;17.25;63.36;100341.87;4476754;32;33579;-78
2022/09/05 04:25:54;;;;;;;3.65;2.58;;;;;;;17.24;62.98;100341.03;4476758;32;33746;-80
2022/09/05 04:28:52;;;;;;;3.58;2.05;;;;;;;17.14;63.27;100350.06;4476681;32;33520;-80
2022/09/05 04:31:30;;;;;;;2.87;1.83;;;;;;;17.30;62.93;100342.63;4486302;31;34215;-79
2022/09/05 04:34:13;;;;;;;3.83;1.77;;;;;;;17.32;62.74;100347.81;4497719;31;33603;-82
2022/09/05 04:36:42;;;;;;;2.58;1.73;;;;;;;17.34;62.68;100351.25;4492394;31;34090;-79
2022/09/05 04:39:24;;;;;;;3.33;1.92;;;;;;;17.34;62.91;100348.63;4492027;31;33719;-81
2022/09/05 04:41:58;;;;;;;3.90;1.80;;;;;;;17.35;62.88;100353.81;4492018;31;33469;-78
2022/09/05 04:44:30;;;;;;;3.55;1.52;;;;;;;17.52;62.19;100355.94;4492515;31;34553;-80
2022/09/05 04:47:03;;;;;;;3.08;1.70;;;;;;;17.65;61.71;100359.88;4497718;31;34424;-79
2022/09/05 04:49:34;;;;;;;3.22;1.90;;;;;;;17.68;61.69;100365.00;4492320;31;34032;-79
2022/09/05 04:52:14;;;;;;;4.18;2.08;;;;;;;17.64;61.58;100355.53;4492082;31;34091;-81
2022/09/05 04:54:56;;;;;;;4.07;2.17;;;;;;;17.67;61.88;100365.09;4485938;31;33477;-80
2022/09/05 04:57:29;;;;;;;3.33;1.90;;;;;;;17.66;62.10;100364.22;4483829;31;34113;-80
2022/09/05 05:00:00;;;;;;;6.47;2.33;;;;;;;17.77;61.98;100369.13;4488937;31;33491;-79
2022/09/05 05:02:51;;;;;;;;;;;;;;;17.76;62.03;100366.53;4475572;31;34599;-81
2022/09/05 05:05:55;;;;;;;4.25;2.05;;;;;;;17.90;61.29;100373.13;4489892;31;33705;-79
2022/09/05 05:08:50;;;;;;;4.75;2.47;;;;;;;17.89;61.72;100374.00;4491000;31;33595;-82
2022/09/05 05:11:21;;;;;;;4.15;2.40;;;;;;;17.90;61.81;100370.50;4490644;31;33622;-81
2022/09/05 05:14:15;;;;;;;4.10;2.35;;;;;;;17.75;62.32;100368.31;4491957;31;34495;-80
2022/09/05 05:17:09;;;;;;;5.43;2.30;;;;;;;17.76;62.09;100372.66;4491850;31;33829;-78
2022/09/05 05:20:07;;;;;;;5.37;2.60;;;;;;;17.85;62.20;100376.78;4491951;31;34601;-79
2022/09/05 05:23:01;;;;;;;3.42;2.17;;;;;;;17.96;61.88;100379.94;4489326;31;33590;-81
2022/09/05 05:25:43;;;;;;;4.95;2.28;;;;;;;17.91;61.80;100373.97;4494487;31;34322;-79
2022/09/05 05:28:13;;;;;;;3.75;1.92;;;;;;;17.98;61.97;100383.37;4490429;31;34474;-79
2022/09/05 05:30:53;;;;;;;3.60;2.20;;;;;;;18.19;61.19;100379.16;4491475;31;33574;-81
2022/09/05 05:33:31;;;;;;;3.03;1.98;;;;;;;18.21;61.32;100379.97;4492812;31;34030;-81
2022/09/05 05:36:04;;;;;;;4.82;2.50;;;;;;;18.27;61.13;100385.03;4491365;31;33596;-79
2022/09/05 05:38:40;;;;;;;4.18;2.50;;;;;;;18.32;61.49;100385.72;4485122;31;35225;-79
2022/09/05 05:41:15;;;;;;;4.10;2.45;;;;;;;18.41;61.60;100387.19;4478654;31;33702;-81
2022/09/05 05:43:44;;;;;;;4.43;2.20;;;;;;;18.42;61.99;100385.41;4488672;31;33654;-82
2022/09/05 05:46:23;;;;;;;3.95;2.45;;;;;;;18.55;61.39;100382.28;4489234;31;33496;-80
2022/09/05 05:48:54;;;;;;;4.35;2.47;;;;;;;18.75;60.73;100386.00;4491115;31;33882;-82
2022/09/05 05:51:38;;;;;;;4.25;2.40;;;;;;;18.53;61.04;100388.50;4496557;31;34091;-80
2022/09/05 05:54:31;;;;;;;3.30;1.85;;;;;;;18.72;60.98;100391.34;4499038;31;33328;-79
2022/09/05 05:57:20;;;;;;;4.07;2.40;;;;;;;19.00;59.44;100379.87;4493677;31;33661;-79
2022/09/05 05:59:57;;;;;;;5.07;2.55;;;;;;;19.00;59.55;100385.13;4493616;31;33502;-83
2022/09/05 06:02:52;;;;;;;5.03;2.03;;;;;;;19.23;58.96;100385.09;4496686;31;35039;-81
2022/09/05 06:06:14;;;;;;;3.22;1.90;;;;;;;19.45;58.48;100387.81;4492332;31;34034;-82
2022/09/05 06:09:31;;;;;;;2.90;1.85;;;;;;;19.25;59.15;100392.97;4479549;31;33915;-80
2022/09/05 06:13:01;;;;;;;2.78;2.00;;;;;;;19.31;58.98;100388.31;4487208;31;33596;-80
2022/09/05 06:16:17;;;;;;;4.65;1.98;;;;;;;19.42;59.28;100389.69;4475092;31;34174;-80
2022/09/05 06:19:11;;;;;;;2.53;1.73;;;;;;;19.76;58.39;100390.09;4492499;31;33707;-81
2022/09/05 06:21:56;;;;;;;3.33;2.20;;;;;;;19.81;58.17;100390.78;4493111;31;33769;-79
2022/09/05 06:25:20;;;;;;;4.82;2.22;;;;;;;19.87;57.42;100397.56;4492040;31;33727;-80
2022/09/05 06:28:02;;;;;;;4.75;2.47;;;;;;;19.83;57.78;100394.19;4481412;31;33478;-79
2022/09/05 06:30:59;;;;;;;4.97;2.50;;;;;;;20.14;56.94;100395.59;4476600;31;32621;-83
2022/09/05 06:34:05;;;;;;;6.50;2.47;;;;;;;20.21;57.17;100394.41;4476185;31;34647;-79
2022/09/05 06:36:54;;;;;;;4.20;2.08;;;;;;;20.17;57.63;100397.22;4483168;31;34103;-81
2022/09/05 06:39:35;;;;;;;3.62;2.03;;;;;;;20.32;57.36;100399.25;4482130;31;33732;-80
2022/09/05 06:42:21;;;;;;;4.90;2.15;;;;;;;20.53;57.29;100400.09;4485441;31;33086;-80
2022/09/05 06:45:25;;;;;;;7.50;2.25;;;;;;;20.55;57.21;100402.66;4492373;31;33468;-82
2022/09/05 06:47:59;;;;;;;4.20;2.50;;;;;;;20.66;56.48;100411.00;4489347;31;34507;-80
2022/09/05 06:50:45;;;;;;;6.90;2.92;;;;;;;20.65;55.88;100411.91;4480261;31;33779;-79
2022/09/05 06:53:47;;;;;;;4.50;2.17;;;;;;;20.92;55.23;100409.84;4485051;31;33167;-81
2022/09/05 06:56:54;;;;;;;5.43;2.12;;;;;;;20.69;56.12;100416.16;4477364;32;34089;-79
2022/09/05 06:59:58;;;;;;;5.68;2.80;;;;;;;20.79;56.00;100417.44;4476091;31;33955;-80
2022/09/05 07:02:33;;;;;;;4.20;2.40;;;;;;;21.02;55.50;100413.81;4492080;31;33551;-82
2022/09/05 07:05:31;;;;;;;2.55;1.60;;;;;;;21.24;54.75;100413.69;4488821;31;33461;-80
2022/09/05 07:08:22;;;;;;;4.40;2.35;;;;;;;21.09;55.08;100414.34;4495060;31;35626;-80
2022/09/05 07:11:07;;;;;;;4.50;2.70;;;;;;;21.15;55.08;100413.25;4477060;31;33541;-79
2022/09/05 07:13:54;;;;;;;3.55;2.10;;;;;;;21.09;55.63;100414.34;4477700;32;34145;-80
2022/09/05 07:16:33;;;;;;;3.15;2.17;;;;;;;21.37;55.04;100413.97;4477065;31;33954;-80
2022/09/05 07:19:28;;;;;;;4.78;2.08;;;;;;;21.19;55.33;100425.34;4477327;32;33470;-80
2022/09/05 07:22:17;;;;;;;4.55;2.45;;;;;;;21.60;54.50;100412.06;4476491;31;34332;-81
2022/09/05 07:25:08;;;;;;;3.37;1.90;;;;;;;21.77;54.00;100427.09;4487414;31;33871;-80
2022/09/05 07:27:41;;;;;;;5.97;2.40;;;;;;;21.84;54.07;100417.94;4489389;31;34414;-80
2022/09/05 07:30:31;;;;;;;3.42;2.17;;;;;;;22.00;52.98;100429.50;4484539;31;34068;-81
2022/09/05 07:33:02;;;;;;;4.60;1.70;;;;;;;22.06;52.74;100416.00;4482207;31;34140;-80
2022/09/05 07:35:32;;;;;;;;;;;;;;;22.08;53.10;100419.38;4477943;31;33688;-81
2022/09/05 07:38:15;;;;;;;4.20;1.80;;;;;;;22.01;52.78;100417.13;4491175;31;32540;-81
2022/09/05 07:40:50;;;;;;;3.30;1.77;;;;;;;22.25;52.90;100420.37;4498363;31;33998;-79
2022/09/05 07:43:22;;;;;;;3.25;2.10;;;;;;;22.37;52.05;100417.13;4492170;31;33676;-80
2022/09/05 07:46:02;;;;;;;3.15;2.00;;;;;;;22.44;51.29;100421.16;4490171;31;34077;-82
2022/09/05 07:48:35;;;;;;;2.25;1.62;;;;;;;22.48;51.59;100420.06;4480800;31;33956;-80
2022/09/05 07:51:09;;;;;;;2.22;1.37;;;;;;;22.72;50.09;100419.75;4490550;31;33763;-78
2022/09/05 07:54:02;;;;;;;2.67;1.30;;;;;;;22.59;50.40;100416.87;4496429;31;33748;-79
2022/09/05 07:56:52;;;;;;;3.30;1.80;;;;;;;22.79;49.68;100418.50;4495794;31;33357;-81
2022/09/05 07:59:42;;;;;;;5.37;2.25;;;;;;;23.07;47.61;100411.78;4492186;31;34316;-80
2022/09/05 08:02:12;;;;;;;2.58;1.55;;;;;;;23.20;47.95;100413.69;4491151;31;34049;-80
2022/09/05 08:04:41;;;;;;;1.92;1.23;;;;;;;23.06;47.55;100415.38;4490567;31;34116;-80
2022/09/05 08:07:14;;;;;;;3.90;2.58;;;;;;;23.15;45.62;100409.59;4490837;31;34566;-82
2022/09/05 08:10:08;;;;;;;2.55;1.27;;;;;;;23.24;44.90;100401.12;4496912;31;33813;-79
2022/09/05 08:12:40;;;;;;;2.58;1.27;;;;;;;23.25;43.70;100412.59;4489266;31;34423;-81
2022/09/05 08:15:29;;;;;;;3.85;1.10;;;;;;;23.36;43.79;100411.03;4476256;32;33822;-79
2022/09/05 08:18:23;;;;;;;2.53;1.25;;;;;;;23.51;43.57;100413.78;4477396;31;34546;-81
2022/09/05 08:20:54;;;;;;;2.85;1.60;;;;;;;23.67;43.34;100421.75;4492603;31;33295;-82
2022/09/05 08:23:39;;;;;;;2.60;1.10;;;;;;;23.63;43.10;100413.09;4492657;31;34380;-81
2022/09/05 08:26:10;;;;;;;3.80;1.37;;;;;;;23.80;42.74;100415.69;4498018;31;34761;-83
2022/09/05 08:28:52;;;;;;;2.50;1.10;;;;;;;23.74;43.07;100408.09;4496665;31;34157;-80
2022/09/05 08:31:24;;;;;;;3.37;1.40;;;;;;;23.67;42.45;100413.78;4492596;31;33090;-78
2022/09/05 08:33:55;;;;;;;2.05;1.37;;;;;;;23.78;42.91;100412.28;4492636;31;32933;-79
2022/09/05 08:36:30;;;;;;;2.53;1.37;;;;;;;23.80;43.09;100412.19;4492194;31;33588;-79
2022/09/05 08:39:00;;;;;;;1.85;1.23;;;;;;;24.25;42.92;100413.97;4497822;31;34028;-82
2022/09/05 08:41:34;;;;;;;1.98;1.00;;;;;;;24.25;41.23;100408.66;4493706;31;33222;-79
2022/09/05 08:44:23;;;;;;;2.45;1.40;;;;;;;23.91;43.99;100408.94;4494777;31;34314;-79
2022/09/05 08:47:22;;;;;;;2.47;1.23;;;;;;;24.15;41.82;100410.16;4491283;31;33714;-78
2022/09/05 08:50:27;;;;;;;3.90;1.77;;;;;;;24.14;42.02;100402.28;4476299;32;34302;-80
2022/09/05 08:53:02;;;;;;;1.37;1.00;;;;;;;24.00;42.61;100397.81;4486591;31;33878;-82
2022/09/05 08:55:58;;;;;;;2.87;1.40;;;;;;;24.61;41.22;100396.00;4491795;31;34463;-78
2022/09/05 08:58:41;;;;;;;2.87;1.35;;;;;;;24.21;42.33;100401.88;4492142;31;34422;-80
2022/09/05 09:01:15;;;;;;;2.90;1.25;;;;;;;24.24;42.15;100396.37;4490108;31;34273;-80
2022/09/05 09:04:05;;;;;;;2.85;1.45;;;;;;;24.04;42.50;100396.66;4480118;31;33332;-79
2022/09/05 09:07:03;;;;;;;2.83;1.37;;;;;;;24.57;40.90;100386.50;4476249;32;34706;-82
2022/09/05 09:09:58;;;;;;;3.97;1.50;;;;;;;24.49;42.07;100379.87;4476104;32;33584;-80
2022/09/05 09:12:48;;;;;;;3.22;1.60;;;;;;;24.59;42.09;100371.38;4487391;31;33288;-81
2022/09/05 09:15:20;;;;;;;3.22;1.65;;;;;;;24.74;41.55;100374.88;4476008;32;33271;-80
2022/09/05 09:17:49;;;;;;;3.47;1.67;;;;;;;24.27;42.72;100364.38;4476165;32;33953;-79
2022/09/05 09:20:32;;;;;;;1.80;1.27;;;;;;;24.70;42.58;100372.41;4481735;32;33160;-79
2022/09/05 09:23:04;;;;;;;3.45;1.85;;;;;;;24.81;42.52;100369.09;4475762;32;34020;-81
2022/09/05 09:25:38;;;;;;;3.85;2.15;;;;;;;25.06;41.50;100365.78;4475971;32;34172;-82
2022/09/05 09:28:33;;;;;;;2.22;1.40;;;;;;;25.15;40.58;100368.81;4477975;31;33733;-79
2022/09/05 09:31:40;;;;;;;1.60;1.02;;;;;;;25.39;40.93;100372.56;4481377;31;33874;-79
2022/09/05 09:34:34;;;;;;;3.83;1.80;;;;;;;25.25;41.99;100373.47;4477124;31;33815;-79
2022/09/05 09:37:28;;;;;;;2.12;1.17;;;;;;;25.35;40.50;100381.72;4484314;31;33921;-79
2022/09/05 09:40:37;;;;;;;2.30;1.25;;;;;;;25.30;41.23;100373.19;4486473;31;34676;-82
2022/09/05 09:43:18;;;;;;;2.45;1.37;;;;;;;25.16;41.61;100378.50;4491249;31;34571;-80
2022/09/05 09:46:09;;;;;;;2.28;1.25;;;;;;;25.27;40.42;100370.72;4492064;31;34869;-81
2022/09/05 09:49:02;;;;;;;6.28;1.58;;;;;;;25.28;41.41;100373.28;4486282;31;33678;-78
2022/09/05 09:51:47;;;;;;;1.00;0.90;;;;;;;25.32;42.37;100373.91;4491005;31;34194;-79
2022/09/05 09:55:00;;;;;;;2.85;1.62;;;;;;;25.36;42.84;100370.13;4480304;31;33897;-79
2022/09/05 09:57:54;;;;;;;2.83;1.30;;;;;;;25.48;43.28;100369.34;4478232;31;33337;-80
2022/09/05 10:00:26;;;;;;;2.20;1.30;;;;;;;25.34;43.23;100370.22;4489443;31;32919;-79
2022/09/05 10:03:11;;;;;;;2.83;1.50;;;;;;;25.53;44.22;100372.53;4477646;31;33571;-79
2022/09/05 10:06:25;;;;;;;2.70;1.30;;;;;;;25.45;44.35;100366.88;4481263;31;34101;-79
2022/09/05 10:09:22;;;;;;;4.00;1.50;;;;;;;25.65;41.83;100370.06;4481679;31;34553;-82
2022/09/05 10:12:47;;;;;;;4.93;1.90;;;;;;;25.68;41.41;100364.53;4487168;31;33653;-80
2022/09/05 10:15:42;;;;;;;2.12;1.33;;;;;;;25.81;41.81;100368.09;4486991;31;34407;-80
2022/09/05 10:18:38;;;;;;;1.92;1.10;;;;;;;26.10;40.66;100362.69;4483852;31;34432;-80
2022/09/05 10:21:33;;;;;;;2.00;1.30;;;;;;;26.23;40.90;100363.53;4480250;31;33395;-78
2022/09/05 10:24:26;;;;;;;2.40;1.30;;;;;;;26.47;39.48;100362.84;4484465;31;32136;-82
2022/09/05 10:27:25;;;;;;;2.15;1.30;;;;;;;26.68;39.66;100364.03;4477988;31;33685;-79
2022/09/05 10:30:11;;;;;;;2.20;1.30;;;;;;;26.83;40.16;100358.59;4485159;31;33581;-80
2022/09/05 10:32:44;;;;;;;2.78;1.35;;;;;;;26.74;38.75;100358.28;4478165;31;34004;-78
2022/09/05 10:35:39;;;;;;;2.92;1.40;;;;;;;26.55;39.00;100357.84;4484577;31;33921;-81
2022/09/05 10:38:12;;;;;;;3.95;1.65;;;;;;;26.47;39.10;100353.03;4481549;31;34377;-79
2022/09/05 10:40:44;;;;;;;3.30;1.50;;;;;;;26.44;39.81;100349.75;4489156;31;36315;-80
2022/09/05 10:43:41;;;;;;;1.60;1.15;;;;;;;26.44;40.24;100341.78;4483568;31;33548;-78
2022/09/05 10:46:18;;;;;;;2.25;1.20;;;;;;;26.46;39.65;100339.81;4485532;31;33203;-79
2022/09/05 10:49:10;;;;;;;2.80;1.27;;;;;;;26.50;39.43;100336.84;4483961;31;33915;-78
2022/09/05 10:51:45;;;;;;;1.37;1.02;;;;;;;26.79;39.52;100336.66;4482209;31;33538;-79
2022/09/05 10:54:39;;;;;;;2.87;1.50;;;;;;;26.68;40.24;100334.75;4484544;31;34177;-79
2022/09/05 10:57:20;;;;;;;2.05;1.15;;;;;;;26.77;39.39;100330.59;4489617;31;33012;-80
2022/09/05 11:00:01;;;;;;;1.87;1.40;;;;;;;26.87;38.00;100317.47;4489659;31;34197;-80
2022/09/05 11:02:55;;;;;;;4.37;1.33;;;;;;;26.86;37.00;100326.44;4481975;31;33993;-82
2022/09/05 11:05:28;;;;;;;2.67;1.42;;;;;;;27.01;36.42;100320.00;4480763;31;34389;-79
2022/09/05 11:08:05;;;;;;;1.92;1.02;;;;;;;27.20;37.43;100317.75;4486873;31;33965;-79
2022/09/05 11:10:36;;;;;;;3.08;1.55;;;;;;;27.13;38.17;100319.13;4486489;31;34359;-81
2022/09/05 11:13:15;;;;;;;2.70;1.30;;;;;;;27.36;36.55;100321.97;4490160;31;33463;-79
2022/09/05 11:16:00;;;;;;;1.87;1.15;;;;;;;27.42;35.68;100316.16;4488416;31;33578;-79
2022/09/05 11:18:50;;;;;;;2.05;1.02;;;;;;;27.49;36.86;100314.75;4490668;31;33713;-81
2022/09/05 11:21:54;;;;;;;3.53;1.20;;;;;;;27.27;37.24;100314.63;4487179;31;33073;-79
2022/09/05 11:24:48;;;;;;;1.50;1.10;;;;;;;27.41;37.34;100311.81;4484349;31;33151;-79
2022/09/05 11:27:26;;;;;;;1.67;0.90;;;;;;;27.47;37.74;100308.69;4487864;31;34641;-79
2022/09/05 11:29:58;;;;;;;2.17;1.17;;;;;;;27.77;38.35;100307.38;4484405;31;33058;-82
2022/09/05 11:32:59;;;;;;;1.95;1.00;;;;;;;27.78;36.24;100311.72;4496140;31;34582;-80
2022/09/05 11:35:52;;;;;;;1.50;1.00;;;;;;;27.72;36.05;100304.22;4495590;31;33782;-81
2022/09/05 11:38:59;;;;;;;3.72;1.05;;;;;;;27.95;35.72;100311.34;4494797;31;33923;-79
2022/09/05 11:42:18;;;;;;;1.73;1.00;;;;;;;28.06;37.71;100305.19;4495509;31;33172;-80
2022/09/05 11:45:10;;;;;;;2.37;1.42;;;;;;;28.26;36.09;100304.50;4491366;31;34043;-82
2022/09/05 11:48:19;;;;;;;1.50;1.05;;;;;;;28.19;35.26;100295.25;4485787;31;76666;-80
2022/09/05 11:51:06;;;;;;;1.75;1.10;;;;;;;28.16;36.98;100294.66;4487623;31;33658;-81
2022/09/05 11:54:17;;;;;;;1.95;1.05;;;;;;;28.19;36.75;100286.41;4489912;31;33704;-79
2022/09/05 11:57:00;;;;;;;1.40;0.88;;;;;;;28.32;35.49;100289.84;4487895;31;33405;-80
2022/09/05 12:00:06;;;;;;;4.35;2.60;;;;;;;28.41;34.18;100291.78;4487951;31;33377;-79
2022/09/05 12:03:27;;;;;;;1.83;0.98;;;;;;;28.29;34.72;100290.06;4489506;31;33689;-80
2022/09/05 12:07:04;;;;;;;2.33;1.30;;;;;;;28.23;34.08;100285.22;4488715;31;32864;-80
2022/09/05 12:10:04;;;;;;;2.37;1.25;;;;;;;28.15;34.95;100284.94;4488261;31;33518;-80
2022/09/05 12:12:35;;;;;;;2.10;1.00;;;;;;;27.78;36.70;100282.41;4488530;31;33723;-81
2022/09/05 12:15:21;;;;;;;1.62;0.90;;;;;;;28.03;36.06;100278.78;4487866;31;33496;-79
2022/09/05 12:17:59;;;;;;;1.67;1.05;;;;;;;28.25;34.92;100281.47;4490041;31;33309;-80
2022/09/05 12:20:31;;;;;;;1.85;1.00;;;;;;;27.96;35.33;100278.38;4494845;31;33724;-79
2022/09/05 12:23:30;;;;;;;2.25;1.17;;;;;;;27.93;35.92;100281.25;4492060;31;32234;-79
2022/09/05 12:26:23;;;;;;;1.70;1.10;;;;;;;27.64;36.37;100284.31;4490053;31;33676;-82
2022/09/05 12:29:18;;;;;;;1.10;0.90;;;;;;;27.64;36.42;100271.00;4490158;31;33328;-80
2022/09/05 12:32:06;;;;;;;2.47;1.35;;;;;;;27.61;37.35;100270.34;4490229;31;33857;-79
2022/09/05 12:34:56;;;;;;;1.75;1.20;;;;;;;27.64;37.66;100273.66;4489789;31;33539;-80
2022/09/05 12:37:51;;;;;;;2.62;1.35;;;;;;;27.65;38.16;100269.16;4489611;31;33646;-80
2022/09/05 12:40:43;;;;;;;2.47;1.37;;;;;;;27.72;37.34;100261.56;4489980;31;34000;-80
2022/09/05 12:43:35;;;;;;;1.70;0.93;;;;;;;27.67;38.22;100265.41;4488527;31;32645;-80
2022/09/05 12:46:27;;;;;;;2.37;1.30;;;;;;;27.61;39.91;100263.19;4489277;31;34058;-81
2022/09/05 12:49:02;;;;;;;1.98;1.20;;;;;;;27.44;38.47;100263.63;4481954;31;34172;-79
2022/09/05 12:51:38;;;;;;;2.75;1.45;;;;;;;27.64;36.99;100259.44;4484477;31;33849;-78
2022/09/05 12:54:26;;;;;;;1.77;1.20;;;;;;;27.52;37.50;100252.38;4479339;31;34583;-79
2022/09/05 12:57:09;;;;;;;4.07;1.65;;;;;;;27.63;38.35;100247.94;4482548;31;33644;-79
2022/09/05 13:00:10;;;;;;;1.85;1.17;;;;;;;27.66;38.23;100252.19;4483050;31;34771;-79